In Rescue
 
Open Full Screen Window  High Contrast Mode
March 20, 2019 9:52 PM EDT
Present Weather: Light Rain
Weather Information
Wind Direction
  ---
Wind Speed
  00 kt (0 mph)
Wind Gust
  00 kt (0 mph)
Altimeter
29.95 in
Visibility
2 SM
Temperature
01° C
34° F
Dewpoint
01° C
34° F
Humidity
100%
Sky Condition
Overcast @ 300 ft
LIFR

METAR KSJX 210152Z AUTO 00000KT 2SM -RA OVC003 01/01 A2995 RMK AO2 T00130010

FAA Disclaimer: The data displayed is for advisory purposes only and is not to be used for flight planning or operations.